sensor_id;sensor_type;location;lat;lon;timestamp;P1;durP1;ratioP1;P2;durP2;ratioP2
62572;SDS011;48626;51.678;5.806;2023-01-19T00:00:06;15.27;;;9.90;;
62572;SDS011;48626;51.678;5.806;2023-01-19T00:02:36;18.17;;;10.13;;
62572;SDS011;48626;51.678;5.806;2023-01-19T00:05:02;18.50;;;10.43;;
62572;SDS011;48626;51.678;5.806;2023-01-19T00:07:29;17.48;;;10.50;;
62572;SDS011;48626;51.678;5.806;2023-01-19T00:09:56;16.10;;;8.88;;
62572;SDS011;48626;51.678;5.806;2023-01-19T00:12:21;16.17;;;10.60;;
62572;SDS011;48626;51.678;5.806;2023-01-19T00:14:47;18.83;;;10.27;;
62572;SDS011;48626;51.678;5.806;2023-01-19T00:17:13;14.60;;;9.30;;
62572;SDS011;48626;51.678;5.806;2023-01-19T00:19:39;16.58;;;9.98;;
62572;SDS011;48626;51.678;5.806;2023-01-19T00:22:04;17.85;;;10.07;;
62572;SDS011;48626;51.678;5.806;2023-01-19T00:24:30;19.70;;;11.02;;
62572;SDS011;48626;51.678;5.806;2023-01-19T00:26:56;21.02;;;10.27;;
62572;SDS011;48626;51.678;5.806;2023-01-19T00:29:22;14.35;;;9.68;;
62572;SDS011;48626;51.678;5.806;2023-01-19T00:31:48;18.30;;;9.75;;
62572;SDS011;48626;51.678;5.806;2023-01-19T00:34:14;16.15;;;9.75;;
62572;SDS011;48626;51.678;5.806;2023-01-19T00:36:40;16.45;;;9.38;;
62572;SDS011;48626;51.678;5.806;2023-01-19T00:39:06;18.88;;;10.50;;
62572;SDS011;48626;51.678;5.806;2023-01-19T00:41:32;18.33;;;9.80;;
62572;SDS011;48626;51.678;5.806;2023-01-19T00:44:16;12.07;;;8.48;;
62572;SDS011;48626;51.678;5.806;2023-01-19T00:46:41;23.75;;;10.32;;
62572;SDS011;48626;51.678;5.806;2023-01-19T00:49:07;16.83;;;9.52;;
62572;SDS011;48626;51.678;5.806;2023-01-19T00:51:33;15.07;;;9.40;;
62572;SDS011;48626;51.678;5.806;2023-01-19T00:53:59;19.65;;;10.57;;
62572;SDS011;48626;51.678;5.806;2023-01-19T00:56:29;16.55;;;9.77;;
62572;SDS011;48626;51.678;5.806;2023-01-19T00:58:55;15.20;;;10.07;;
62572;SDS011;48626;51.678;5.806;2023-01-19T01:01:21;17.40;;;10.00;;
62572;SDS011;48626;51.678;5.806;2023-01-19T01:03:46;16.52;;;9.50;;
62572;SDS011;48626;51.678;5.806;2023-01-19T01:06:12;18.05;;;9.80;;
62572;SDS011;48626;51.678;5.806;2023-01-19T01:08:38;19.98;;;10.07;;
62572;SDS011;48626;51.678;5.806;2023-01-19T01:11:03;18.08;;;9.85;;
62572;SDS011;48626;51.678;5.806;2023-01-19T01:13:29;19.58;;;9.88;;
62572;SDS011;48626;51.678;5.806;2023-01-19T01:15:55;15.35;;;9.45;;
62572;SDS011;48626;51.678;5.806;2023-01-19T01:18:21;18.63;;;10.50;;
62572;SDS011;48626;51.678;5.806;2023-01-19T01:20:47;14.98;;;9.23;;
62572;SDS011;48626;51.678;5.806;2023-01-19T01:23:13;17.52;;;10.40;;
62572;SDS011;48626;51.678;5.806;2023-01-19T01:25:39;17.02;;;10.30;;
62572;SDS011;48626;51.678;5.806;2023-01-19T01:28:06;17.95;;;10.30;;
62572;SDS011;48626;51.678;5.806;2023-01-19T01:30:36;17.90;;;10.20;;
62572;SDS011;48626;51.678;5.806;2023-01-19T01:33:05;20.02;;;9.93;;
62572;SDS011;48626;51.678;5.806;2023-01-19T01:35:32;20.27;;;10.32;;
62572;SDS011;48626;51.678;5.806;2023-01-19T01:37:58;18.00;;;11.02;;
62572;SDS011;48626;51.678;5.806;2023-01-19T01:40:25;16.23;;;10.05;;
62572;SDS011;48626;51.678;5.806;2023-01-19T01:42:51;18.55;;;10.02;;
62572;SDS011;48626;51.678;5.806;2023-01-19T01:48:08;18.98;;;9.75;;
62572;SDS011;48626;51.678;5.806;2023-01-19T01:50:50;19.27;;;10.35;;
62572;SDS011;48626;51.678;5.806;2023-01-19T01:53:40;17.33;;;10.30;;
62572;SDS011;48626;51.678;5.806;2023-01-19T01:56:08;19.88;;;10.35;;
62572;SDS011;48626;51.678;5.806;2023-01-19T01:58:39;18.73;;;9.07;;
62572;SDS011;48626;51.678;5.806;2023-01-19T02:01:06;21.48;;;10.02;;
62572;SDS011;48626;51.678;5.806;2023-01-19T02:03:51;18.75;;;9.98;;
62572;SDS011;48626;51.678;5.806;2023-01-19T02:06:18;22.17;;;10.15;;
62572;SDS011;48626;51.678;5.806;2023-01-19T02:08:46;20.80;;;11.05;;
62572;SDS011;48626;51.678;5.806;2023-01-19T02:14:21;14.95;;;9.07;;
62572;SDS011;48626;51.678;5.806;2023-01-19T02:16:46;18.02;;;9.13;;
62572;SDS011;48626;51.678;5.806;2023-01-19T02:19:13;17.05;;;8.82;;
62572;SDS011;48626;51.678;5.806;2023-01-19T02:21:56;16.73;;;9.95;;
62572;SDS011;48626;51.678;5.806;2023-01-19T02:24:28;16.52;;;9.88;;
62572;SDS011;48626;51.678;5.806;2023-01-19T02:26:54;16.83;;;9.60;;
62572;SDS011;48626;51.678;5.806;2023-01-19T02:29:21;17.05;;;10.00;;
62572;SDS011;48626;51.678;5.806;2023-01-19T02:31:49;22.80;;;10.00;;
62572;SDS011;48626;51.678;5.806;2023-01-19T02:34:17;16.52;;;9.98;;
62572;SDS011;48626;51.678;5.806;2023-01-19T02:39:44;15.95;;;9.73;;
62572;SDS011;48626;51.678;5.806;2023-01-19T02:42:16;16.58;;;8.70;;
62572;SDS011;48626;51.678;5.806;2023-01-19T02:44:47;17.15;;;9.10;;
62572;SDS011;48626;51.678;5.806;2023-01-19T02:47:14;16.90;;;8.77;;
62572;SDS011;48626;51.678;5.806;2023-01-19T02:49:40;17.02;;;8.30;;
62572;SDS011;48626;51.678;5.806;2023-01-19T02:52:13;15.30;;;8.90;;
62572;SDS011;48626;51.678;5.806;2023-01-19T02:54:59;17.48;;;9.02;;
62572;SDS011;48626;51.678;5.806;2023-01-19T02:57:34;16.63;;;8.40;;
62572;SDS011;48626;51.678;5.806;2023-01-19T03:00:21;11.95;;;7.90;;
62572;SDS011;48626;51.678;5.806;2023-01-19T03:11:05;14.00;;;7.80;;
62572;SDS011;48626;51.678;5.806;2023-01-19T03:13:41;12.68;;;8.50;;
62572;SDS011;48626;51.678;5.806;2023-01-19T03:21:39;13.95;;;8.63;;
62572;SDS011;48626;51.678;5.806;2023-01-19T03:24:08;16.95;;;9.35;;
62572;SDS011;48626;51.678;5.806;2023-01-19T03:26:37;18.45;;;9.13;;
62572;SDS011;48626;51.678;5.806;2023-01-19T03:29:08;14.25;;;8.85;;
62572;SDS011;48626;51.678;5.806;2023-01-19T03:31:37;16.85;;;8.63;;
62572;SDS011;48626;51.678;5.806;2023-01-19T03:34:06;13.68;;;8.23;;
62572;SDS011;48626;51.678;5.806;2023-01-19T03:36:44;14.60;;;8.82;;
62572;SDS011;48626;51.678;5.806;2023-01-19T03:39:16;12.48;;;7.93;;
62572;SDS011;48626;51.678;5.806;2023-01-19T03:41:46;12.13;;;7.40;;
62572;SDS011;48626;51.678;5.806;2023-01-19T03:44:13;12.35;;;7.20;;
62572;SDS011;48626;51.678;5.806;2023-01-19T03:46:40;8.88;;;6.53;;
62572;SDS011;48626;51.678;5.806;2023-01-19T03:49:06;16.15;;;7.53;;
62572;SDS011;48626;51.678;5.806;2023-01-19T03:51:36;9.50;;;6.40;;
62572;SDS011;48626;51.678;5.806;2023-01-19T03:54:06;10.50;;;7.38;;
62572;SDS011;48626;51.678;5.806;2023-01-19T03:56:34;12.27;;;7.57;;
62572;SDS011;48626;51.678;5.806;2023-01-19T03:58:59;10.38;;;6.32;;
62572;SDS011;48626;51.678;5.806;2023-01-19T04:01:25;9.88;;;6.43;;
62572;SDS011;48626;51.678;5.806;2023-01-19T04:03:51;9.32;;;6.35;;
62572;SDS011;48626;51.678;5.806;2023-01-19T04:06:18;9.13;;;5.68;;
62572;SDS011;48626;51.678;5.806;2023-01-19T04:08:46;9.43;;;6.30;;
62572;SDS011;48626;51.678;5.806;2023-01-19T04:11:13;9.18;;;5.28;;
62572;SDS011;48626;51.678;5.806;2023-01-19T04:13:38;7.80;;;5.20;;
62572;SDS011;48626;51.678;5.806;2023-01-19T04:16:04;8.63;;;5.63;;
62572;SDS011;48626;51.678;5.806;2023-01-19T04:18:31;7.55;;;5.60;;
62572;SDS011;48626;51.678;5.806;2023-01-19T04:21:01;7.60;;;5.72;;
62572;SDS011;48626;51.678;5.806;2023-01-19T04:23:28;7.30;;;5.18;;
62572;SDS011;48626;51.678;5.806;2023-01-19T04:25:57;9.60;;;5.13;;
62572;SDS011;48626;51.678;5.806;2023-01-19T04:28:23;6.82;;;5.15;;
62572;SDS011;48626;51.678;5.806;2023-01-19T04:30:49;7.20;;;5.30;;
62572;SDS011;48626;51.678;5.806;2023-01-19T04:33:16;7.57;;;5.03;;
62572;SDS011;48626;51.678;5.806;2023-01-19T04:35:46;7.25;;;5.03;;
62572;SDS011;48626;51.678;5.806;2023-01-19T04:38:12;8.50;;;4.97;;
62572;SDS011;48626;51.678;5.806;2023-01-19T04:40:38;8.02;;;5.15;;
62572;SDS011;48626;51.678;5.806;2023-01-19T04:43:04;7.50;;;5.18;;
62572;SDS011;48626;51.678;5.806;2023-01-19T04:45:30;6.13;;;4.80;;
62572;SDS011;48626;51.678;5.806;2023-01-19T04:47:56;8.50;;;4.80;;
62572;SDS011;48626;51.678;5.806;2023-01-19T04:50:21;5.00;;;3.78;;
62572;SDS011;48626;51.678;5.806;2023-01-19T04:52:47;6.30;;;4.70;;
62572;SDS011;48626;51.678;5.806;2023-01-19T04:55:13;5.60;;;4.20;;
62572;SDS011;48626;51.678;5.806;2023-01-19T04:57:39;5.18;;;3.95;;
62572;SDS011;48626;51.678;5.806;2023-01-19T05:00:05;5.85;;;3.97;;
62572;SDS011;48626;51.678;5.806;2023-01-19T05:02:32;4.55;;;3.40;;
62572;SDS011;48626;51.678;5.806;2023-01-19T05:04:58;4.93;;;3.70;;
62572;SDS011;48626;51.678;5.806;2023-01-19T05:07:24;4.93;;;3.10;;
62572;SDS011;48626;51.678;5.806;2023-01-19T05:09:50;4.15;;;3.22;;
62572;SDS011;48626;51.678;5.806;2023-01-19T05:12:16;5.80;;;3.60;;
62572;SDS011;48626;51.678;5.806;2023-01-19T05:14:41;4.35;;;3.28;;
62572;SDS011;48626;51.678;5.806;2023-01-19T05:17:08;5.30;;;2.88;;
62572;SDS011;48626;51.678;5.806;2023-01-19T05:19:34;6.10;;;3.10;;
62572;SDS011;48626;51.678;5.806;2023-01-19T05:22:00;3.42;;;2.53;;
62572;SDS011;48626;51.678;5.806;2023-01-19T05:24:29;4.30;;;3.22;;
62572;SDS011;48626;51.678;5.806;2023-01-19T05:26:55;5.53;;;3.17;;
62572;SDS011;48626;51.678;5.806;2023-01-19T05:29:21;6.75;;;3.33;;
62572;SDS011;48626;51.678;5.806;2023-01-19T05:31:47;5.07;;;3.63;;
62572;SDS011;48626;51.678;5.806;2023-01-19T05:34:13;5.82;;;3.90;;
62572;SDS011;48626;51.678;5.806;2023-01-19T05:36:39;5.68;;;4.50;;
62572;SDS011;48626;51.678;5.806;2023-01-19T05:39:05;6.05;;;4.10;;
62572;SDS011;48626;51.678;5.806;2023-01-19T05:41:31;6.75;;;3.83;;
62572;SDS011;48626;51.678;5.806;2023-01-19T05:43:57;6.53;;;3.58;;
62572;SDS011;48626;51.678;5.806;2023-01-19T05:46:23;3.92;;;3.15;;
62572;SDS011;48626;51.678;5.806;2023-01-19T05:48:49;6.45;;;2.80;;
62572;SDS011;48626;51.678;5.806;2023-01-19T05:51:15;5.18;;;3.17;;
62572;SDS011;48626;51.678;5.806;2023-01-19T05:53:41;4.38;;;2.78;;
62572;SDS011;48626;51.678;5.806;2023-01-19T05:56:07;3.45;;;2.50;;
62572;SDS011;48626;51.678;5.806;2023-01-19T05:58:34;3.70;;;2.45;;
62572;SDS011;48626;51.678;5.806;2023-01-19T06:01:02;3.88;;;2.70;;
62572;SDS011;48626;51.678;5.806;2023-01-19T06:03:29;5.53;;;3.08;;
62572;SDS011;48626;51.678;5.806;2023-01-19T06:05:56;5.18;;;2.78;;
62572;SDS011;48626;51.678;5.806;2023-01-19T06:08:22;4.88;;;3.08;;
62572;SDS011;48626;51.678;5.806;2023-01-19T06:10:48;6.50;;;2.65;;
62572;SDS011;48626;51.678;5.806;2023-01-19T06:13:14;6.75;;;3.58;;
62572;SDS011;48626;51.678;5.806;2023-01-19T06:15:39;9.50;;;3.15;;
62572;SDS011;48626;51.678;5.806;2023-01-19T06:18:06;4.78;;;3.40;;
62572;SDS011;48626;51.678;5.806;2023-01-19T06:20:32;6.78;;;3.60;;
62572;SDS011;48626;51.678;5.806;2023-01-19T06:22:58;4.72;;;3.60;;
62572;SDS011;48626;51.678;5.806;2023-01-19T06:25:23;7.82;;;3.63;;
62572;SDS011;48626;51.678;5.806;2023-01-19T06:27:50;6.72;;;3.97;;
62572;SDS011;48626;51.678;5.806;2023-01-19T06:30:16;4.72;;;3.65;;
62572;SDS011;48626;51.678;5.806;2023-01-19T06:32:42;7.03;;;4.13;;
62572;SDS011;48626;51.678;5.806;2023-01-19T06:35:07;7.47;;;4.28;;
62572;SDS011;48626;51.678;5.806;2023-01-19T06:37:33;6.10;;;4.00;;
62572;SDS011;48626;51.678;5.806;2023-01-19T06:39:59;8.32;;;4.07;;
62572;SDS011;48626;51.678;5.806;2023-01-19T06:42:25;8.50;;;4.57;;
62572;SDS011;48626;51.678;5.806;2023-01-19T06:44:51;8.80;;;4.18;;
62572;SDS011;48626;51.678;5.806;2023-01-19T06:47:16;9.07;;;4.25;;
62572;SDS011;48626;51.678;5.806;2023-01-19T06:49:42;11.50;;;5.03;;
62572;SDS011;48626;51.678;5.806;2023-01-19T06:52:08;8.43;;;5.25;;
62572;SDS011;48626;51.678;5.806;2023-01-19T06:54:35;8.00;;;4.82;;
62572;SDS011;48626;51.678;5.806;2023-01-19T06:57:01;9.50;;;5.50;;
62572;SDS011;48626;51.678;5.806;2023-01-19T06:59:27;10.82;;;5.93;;
62572;SDS011;48626;51.678;5.806;2023-01-19T07:01:53;10.15;;;6.15;;
62572;SDS011;48626;51.678;5.806;2023-01-19T07:04:20;8.88;;;5.65;;
62572;SDS011;48626;51.678;5.806;2023-01-19T07:06:46;9.20;;;6.38;;
62572;SDS011;48626;51.678;5.806;2023-01-19T07:09:12;9.32;;;6.35;;
62572;SDS011;48626;51.678;5.806;2023-01-19T07:11:38;10.40;;;5.88;;
62572;SDS011;48626;51.678;5.806;2023-01-19T07:14:04;12.13;;;7.38;;
62572;SDS011;48626;51.678;5.806;2023-01-19T07:16:29;14.50;;;7.50;;
62572;SDS011;48626;51.678;5.806;2023-01-19T07:18:55;14.52;;;8.18;;
62572;SDS011;48626;51.678;5.806;2023-01-19T07:21:21;11.48;;;7.53;;
62572;SDS011;48626;51.678;5.806;2023-01-19T07:23:47;15.95;;;7.95;;
62572;SDS011;48626;51.678;5.806;2023-01-19T07:26:14;13.30;;;8.65;;
62572;SDS011;48626;51.678;5.806;2023-01-19T07:28:42;15.63;;;8.68;;
62572;SDS011;48626;51.678;5.806;2023-01-19T07:31:08;16.13;;;10.13;;
62572;SDS011;48626;51.678;5.806;2023-01-19T07:33:34;13.93;;;9.73;;
62572;SDS011;48626;51.678;5.806;2023-01-19T07:36:00;17.05;;;9.10;;
62572;SDS011;48626;51.678;5.806;2023-01-19T07:38:26;13.73;;;9.68;;
62572;SDS011;48626;51.678;5.806;2023-01-19T07:40:58;19.63;;;11.80;;
62572;SDS011;48626;51.678;5.806;2023-01-19T07:43:24;18.38;;;10.13;;
62572;SDS011;48626;51.678;5.806;2023-01-19T07:45:50;18.17;;;10.75;;
62572;SDS011;48626;51.678;5.806;2023-01-19T07:48:16;21.60;;;11.90;;
62572;SDS011;48626;51.678;5.806;2023-01-19T07:50:42;20.00;;;12.35;;
62572;SDS011;48626;51.678;5.806;2023-01-19T07:53:09;23.20;;;12.73;;
62572;SDS011;48626;51.678;5.806;2023-01-19T07:55:35;26.90;;;15.00;;
62572;SDS011;48626;51.678;5.806;2023-01-19T07:58:01;23.00;;;12.38;;
62572;SDS011;48626;51.678;5.806;2023-01-19T08:00:30;18.20;;;12.07;;
62572;SDS011;48626;51.678;5.806;2023-01-19T08:03:00;19.70;;;12.75;;
62572;SDS011;48626;51.678;5.806;2023-01-19T08:05:26;22.48;;;13.07;;
62572;SDS011;48626;51.678;5.806;2023-01-19T08:07:53;16.70;;;11.57;;
62572;SDS011;48626;51.678;5.806;2023-01-19T08:10:21;21.50;;;13.82;;
62572;SDS011;48626;51.678;5.806;2023-01-19T08:12:50;21.88;;;14.80;;
62572;SDS011;48626;51.678;5.806;2023-01-19T08:15:17;25.55;;;13.23;;
62572;SDS011;48626;51.678;5.806;2023-01-19T08:17:42;25.92;;;13.98;;
62572;SDS011;48626;51.678;5.806;2023-01-19T08:20:08;20.25;;;14.15;;
62572;SDS011;48626;51.678;5.806;2023-01-19T08:22:35;21.45;;;13.60;;
62572;SDS011;48626;51.678;5.806;2023-01-19T08:25:01;24.38;;;15.32;;
62572;SDS011;48626;51.678;5.806;2023-01-19T08:27:27;21.60;;;13.50;;
62572;SDS011;48626;51.678;5.806;2023-01-19T08:29:52;24.13;;;13.68;;
62572;SDS011;48626;51.678;5.806;2023-01-19T08:32:18;19.20;;;12.88;;
62572;SDS011;48626;51.678;5.806;2023-01-19T08:34:44;24.17;;;13.90;;
62572;SDS011;48626;51.678;5.806;2023-01-19T08:37:10;25.20;;;12.77;;
62572;SDS011;48626;51.678;5.806;2023-01-19T08:39:35;23.85;;;13.60;;
62572;SDS011;48626;51.678;5.806;2023-01-19T08:42:01;26.27;;;13.68;;
62572;SDS011;48626;51.678;5.806;2023-01-19T08:44:27;24.02;;;13.70;;
62572;SDS011;48626;51.678;5.806;2023-01-19T08:46:52;23.55;;;14.40;;
62572;SDS011;48626;51.678;5.806;2023-01-19T08:49:18;23.08;;;13.65;;
62572;SDS011;48626;51.678;5.806;2023-01-19T08:51:44;27.77;;;14.02;;
62572;SDS011;48626;51.678;5.806;2023-01-19T08:54:11;28.40;;;13.82;;
62572;SDS011;48626;51.678;5.806;2023-01-19T08:56:37;24.58;;;14.25;;
62572;SDS011;48626;51.678;5.806;2023-01-19T08:59:03;28.33;;;14.90;;
62572;SDS011;48626;51.678;5.806;2023-01-19T09:01:28;24.45;;;14.68;;
62572;SDS011;48626;51.678;5.806;2023-01-19T09:03:54;27.13;;;14.70;;
62572;SDS011;48626;51.678;5.806;2023-01-19T09:06:20;24.30;;;14.18;;
62572;SDS011;48626;51.678;5.806;2023-01-19T09:08:46;29.85;;;13.60;;
62572;SDS011;48626;51.678;5.806;2023-01-19T09:11:13;28.70;;;14.07;;
62572;SDS011;48626;51.678;5.806;2023-01-19T09:13:39;25.15;;;13.38;;
62572;SDS011;48626;51.678;5.806;2023-01-19T09:16:06;30.27;;;13.80;;
62572;SDS011;48626;51.678;5.806;2023-01-19T09:18:33;20.52;;;12.43;;
62572;SDS011;48626;51.678;5.806;2023-01-19T09:20:59;24.75;;;12.05;;
62572;SDS011;48626;51.678;5.806;2023-01-19T09:23:25;19.25;;;11.13;;
62572;SDS011;48626;51.678;5.806;2023-01-19T09:25:56;20.65;;;10.32;;
62572;SDS011;48626;51.678;5.806;2023-01-19T09:28:23;23.08;;;11.13;;
62572;SDS011;48626;51.678;5.806;2023-01-19T09:30:50;16.50;;;9.80;;
62572;SDS011;48626;51.678;5.806;2023-01-19T09:33:16;24.25;;;11.25;;
62572;SDS011;48626;51.678;5.806;2023-01-19T09:35:44;23.17;;;11.23;;
62572;SDS011;48626;51.678;5.806;2023-01-19T09:38:11;21.35;;;12.02;;
62572;SDS011;48626;51.678;5.806;2023-01-19T09:40:40;29.45;;;14.00;;
62572;SDS011;48626;51.678;5.806;2023-01-19T09:46:02;25.80;;;15.45;;
62572;SDS011;48626;51.678;5.806;2023-01-19T09:51:01;34.40;;;17.98;;
62572;SDS011;48626;51.678;5.806;2023-01-19T09:56:15;42.38;;;19.63;;
62572;SDS011;48626;51.678;5.806;2023-01-19T09:58:43;43.70;;;18.60;;
62572;SDS011;48626;51.678;5.806;2023-01-19T10:07:01;42.50;;;19.27;;
62572;SDS011;48626;51.678;5.806;2023-01-19T10:10:00;42.33;;;21.52;;
62572;SDS011;48626;51.678;5.806;2023-01-19T10:12:34;51.90;;;18.73;;
62572;SDS011;48626;51.678;5.806;2023-01-19T10:15:14;42.60;;;19.98;;
62572;SDS011;48626;51.678;5.806;2023-01-19T10:20:30;44.67;;;19.27;;
62572;SDS011;48626;51.678;5.806;2023-01-19T10:23:00;39.67;;;18.73;;
62572;SDS011;48626;51.678;5.806;2023-01-19T10:25:41;43.33;;;19.33;;
62572;SDS011;48626;51.678;5.806;2023-01-19T10:28:07;42.17;;;19.70;;
62572;SDS011;48626;51.678;5.806;2023-01-19T10:30:34;41.60;;;20.25;;
62572;SDS011;48626;51.678;5.806;2023-01-19T10:33:00;47.75;;;20.25;;
62572;SDS011;48626;51.678;5.806;2023-01-19T10:35:26;47.40;;;20.98;;
62572;SDS011;48626;51.678;5.806;2023-01-19T10:37:54;47.08;;;21.45;;
62572;SDS011;48626;51.678;5.806;2023-01-19T10:42:51;57.08;;;22.13;;
62572;SDS011;48626;51.678;5.806;2023-01-19T10:45:18;55.15;;;23.80;;
62572;SDS011;48626;51.678;5.806;2023-01-19T10:47:53;57.83;;;23.20;;
62572;SDS011;48626;51.678;5.806;2023-01-19T10:50:23;58.22;;;24.27;;
62572;SDS011;48626;51.678;5.806;2023-01-19T10:52:58;52.72;;;23.88;;
62572;SDS011;48626;51.678;5.806;2023-01-19T10:57:58;50.40;;;22.33;;
62572;SDS011;48626;51.678;5.806;2023-01-19T11:00:29;52.35;;;22.92;;
62572;SDS011;48626;51.678;5.806;2023-01-19T11:02:55;54.17;;;22.05;;
62572;SDS011;48626;51.678;5.806;2023-01-19T11:05:22;51.15;;;20.98;;
62572;SDS011;48626;51.678;5.806;2023-01-19T11:07:50;39.95;;;19.52;;
62572;SDS011;48626;51.678;5.806;2023-01-19T11:12:42;42.17;;;20.80;;
62572;SDS011;48626;51.678;5.806;2023-01-19T11:15:20;40.55;;;21.27;;
62572;SDS011;48626;51.678;5.806;2023-01-19T11:18:17;33.38;;;19.08;;
62572;SDS011;48626;51.678;5.806;2023-01-19T11:20:53;31.05;;;17.70;;
62572;SDS011;48626;51.678;5.806;2023-01-19T11:23:25;37.85;;;18.27;;
62572;SDS011;48626;51.678;5.806;2023-01-19T11:25:57;36.67;;;18.88;;
62572;SDS011;48626;51.678;5.806;2023-01-19T11:28:28;39.67;;;19.10;;
62572;SDS011;48626;51.678;5.806;2023-01-19T11:33:42;34.90;;;19.05;;
62572;SDS011;48626;51.678;5.806;2023-01-19T11:36:14;36.92;;;17.42;;
62572;SDS011;48626;51.678;5.806;2023-01-19T11:38:40;34.30;;;17.60;;
62572;SDS011;48626;51.678;5.806;2023-01-19T11:41:13;31.88;;;15.75;;
62572;SDS011;48626;51.678;5.806;2023-01-19T11:43:42;28.27;;;15.73;;
62572;SDS011;48626;51.678;5.806;2023-01-19T11:46:10;25.52;;;15.05;;
62572;SDS011;48626;51.678;5.806;2023-01-19T11:48:48;25.25;;;14.18;;
62572;SDS011;48626;51.678;5.806;2023-01-19T11:51:21;31.00;;;13.85;;
62572;SDS011;48626;51.678;5.806;2023-01-19T11:53:50;29.88;;;13.77;;
62572;SDS011;48626;51.678;5.806;2023-01-19T11:56:17;24.50;;;12.75;;
62572;SDS011;48626;51.678;5.806;2023-01-19T11:58:47;25.20;;;13.65;;
62572;SDS011;48626;51.678;5.806;2023-01-19T12:01:48;25.08;;;12.50;;
62572;SDS011;48626;51.678;5.806;2023-01-19T12:04:23;25.20;;;12.25;;
62572;SDS011;48626;51.678;5.806;2023-01-19T12:06:53;28.23;;;12.57;;
62572;SDS011;48626;51.678;5.806;2023-01-19T12:09:23;27.63;;;12.35;;
62572;SDS011;48626;51.678;5.806;2023-01-19T12:12:11;26.17;;;12.32;;
62572;SDS011;48626;51.678;5.806;2023-01-19T12:15:04;27.23;;;13.27;;
62572;SDS011;48626;51.678;5.806;2023-01-19T12:17:50;23.65;;;11.77;;
62572;SDS011;48626;51.678;5.806;2023-01-19T12:23:12;24.33;;;11.68;;
62572;SDS011;48626;51.678;5.806;2023-01-19T12:31:08;20.48;;;10.50;;
62572;SDS011;48626;51.678;5.806;2023-01-19T12:33:35;26.40;;;11.98;;
62572;SDS011;48626;51.678;5.806;2023-01-19T12:36:37;26.10;;;11.80;;
62572;SDS011;48626;51.678;5.806;2023-01-19T12:41:43;25.70;;;12.18;;
62572;SDS011;48626;51.678;5.806;2023-01-19T12:46:38;30.15;;;14.10;;
62572;SDS011;48626;51.678;5.806;2023-01-19T12:57:58;27.13;;;11.95;;
62572;SDS011;48626;51.678;5.806;2023-01-19T13:02:56;32.03;;;12.88;;
62572;SDS011;48626;51.678;5.806;2023-01-19T13:05:46;29.00;;;11.70;;
62572;SDS011;48626;51.678;5.806;2023-01-19T13:08:15;22.35;;;11.32;;
62572;SDS011;48626;51.678;5.806;2023-01-19T13:18:46;34.28;;;12.43;;
62572;SDS011;48626;51.678;5.806;2023-01-19T13:21:26;24.07;;;12.37;;
62572;SDS011;48626;51.678;5.806;2023-01-19T13:23:57;24.73;;;10.57;;
62572;SDS011;48626;51.678;5.806;2023-01-19T13:26:31;25.83;;;10.40;;
62572;SDS011;48626;51.678;5.806;2023-01-19T13:29:06;30.50;;;10.13;;
62572;SDS011;48626;51.678;5.806;2023-01-19T13:31:40;17.85;;;9.95;;
62572;SDS011;48626;51.678;5.806;2023-01-19T13:34:43;25.08;;;10.93;;
62572;SDS011;48626;51.678;5.806;2023-01-19T13:37:06;21.77;;;10.15;;
62572;SDS011;48626;51.678;5.806;2023-01-19T13:39:42;24.65;;;10.30;;
62572;SDS011;48626;51.678;5.806;2023-01-19T13:42:14;33.35;;;11.95;;
62572;SDS011;48626;51.678;5.806;2023-01-19T13:44:53;25.75;;;11.25;;
62572;SDS011;48626;51.678;5.806;2023-01-19T13:49:56;28.10;;;10.05;;
62572;SDS011;48626;51.678;5.806;2023-01-19T13:52:28;23.73;;;9.85;;
62572;SDS011;48626;51.678;5.806;2023-01-19T13:54:59;20.00;;;10.88;;
62572;SDS011;48626;51.678;5.806;2023-01-19T13:57:29;18.25;;;9.77;;
62572;SDS011;48626;51.678;5.806;2023-01-19T14:02:30;22.95;;;10.45;;
62572;SDS011;48626;51.678;5.806;2023-01-19T14:04:56;26.92;;;11.88;;
62572;SDS011;48626;51.678;5.806;2023-01-19T14:07:22;24.25;;;11.20;;
62572;SDS011;48626;51.678;5.806;2023-01-19T14:10:01;27.35;;;10.52;;
62572;SDS011;48626;51.678;5.806;2023-01-19T14:12:31;19.80;;;11.30;;
62572;SDS011;48626;51.678;5.806;2023-01-19T14:14:57;25.20;;;11.70;;
62572;SDS011;48626;51.678;5.806;2023-01-19T14:17:24;24.40;;;11.45;;
62572;SDS011;48626;51.678;5.806;2023-01-19T14:19:53;29.30;;;13.30;;
62572;SDS011;48626;51.678;5.806;2023-01-19T14:22:20;22.58;;;11.65;;
62572;SDS011;48626;51.678;5.806;2023-01-19T14:25:19;27.85;;;12.38;;
62572;SDS011;48626;51.678;5.806;2023-01-19T14:28:24;22.58;;;10.55;;
62572;SDS011;48626;51.678;5.806;2023-01-19T14:30:59;26.50;;;11.65;;
62572;SDS011;48626;51.678;5.806;2023-01-19T14:36:33;31.50;;;12.18;;
62572;SDS011;48626;51.678;5.806;2023-01-19T14:39:02;19.85;;;10.52;;
62572;SDS011;48626;51.678;5.806;2023-01-19T14:41:35;23.63;;;11.23;;
62572;SDS011;48626;51.678;5.806;2023-01-19T14:44:08;27.95;;;14.95;;
62572;SDS011;48626;51.678;5.806;2023-01-19T14:46:35;31.63;;;15.38;;
62572;SDS011;48626;51.678;5.806;2023-01-19T14:49:01;23.40;;;13.20;;
62572;SDS011;48626;51.678;5.806;2023-01-19T14:51:28;27.98;;;12.50;;
62572;SDS011;48626;51.678;5.806;2023-01-19T14:53:56;26.65;;;13.45;;
62572;SDS011;48626;51.678;5.806;2023-01-19T14:56:27;34.50;;;13.65;;
62572;SDS011;48626;51.678;5.806;2023-01-19T14:58:58;28.73;;;13.80;;
62572;SDS011;48626;51.678;5.806;2023-01-19T15:01:25;28.98;;;13.15;;
62572;SDS011;48626;51.678;5.806;2023-01-19T15:03:55;27.17;;;12.73;;
62572;SDS011;48626;51.678;5.806;2023-01-19T15:06:22;30.33;;;12.75;;
62572;SDS011;48626;51.678;5.806;2023-01-19T15:08:49;29.85;;;14.48;;
62572;SDS011;48626;51.678;5.806;2023-01-19T15:13:51;32.25;;;14.73;;
62572;SDS011;48626;51.678;5.806;2023-01-19T15:16:17;29.58;;;13.57;;
62572;SDS011;48626;51.678;5.806;2023-01-19T15:18:43;20.55;;;12.63;;
62572;SDS011;48626;51.678;5.806;2023-01-19T15:21:10;32.17;;;14.40;;
62572;SDS011;48626;51.678;5.806;2023-01-19T15:23:40;33.30;;;14.93;;
62572;SDS011;48626;51.678;5.806;2023-01-19T15:26:06;29.50;;;14.68;;
62572;SDS011;48626;51.678;5.806;2023-01-19T15:31:02;29.10;;;13.63;;
62572;SDS011;48626;51.678;5.806;2023-01-19T15:33:28;29.52;;;14.43;;
62572;SDS011;48626;51.678;5.806;2023-01-19T15:35:54;45.80;;;17.85;;
62572;SDS011;48626;51.678;5.806;2023-01-19T15:38:20;39.50;;;16.23;;
62572;SDS011;48626;51.678;5.806;2023-01-19T15:40:47;33.75;;;16.42;;
62572;SDS011;48626;51.678;5.806;2023-01-19T15:43:13;31.00;;;16.20;;
62572;SDS011;48626;51.678;5.806;2023-01-19T15:45:43;34.25;;;14.80;;
62572;SDS011;48626;51.678;5.806;2023-01-19T15:48:14;33.78;;;14.55;;
62572;SDS011;48626;51.678;5.806;2023-01-19T15:50:40;32.85;;;15.77;;
62572;SDS011;48626;51.678;5.806;2023-01-19T15:53:11;27.88;;;14.48;;
62572;SDS011;48626;51.678;5.806;2023-01-19T15:55:42;29.70;;;14.40;;
62572;SDS011;48626;51.678;5.806;2023-01-19T15:58:08;31.55;;;14.43;;
62572;SDS011;48626;51.678;5.806;2023-01-19T16:00:34;28.05;;;13.40;;
62572;SDS011;48626;51.678;5.806;2023-01-19T16:03:01;33.75;;;14.73;;
62572;SDS011;48626;51.678;5.806;2023-01-19T16:05:27;29.50;;;14.23;;
62572;SDS011;48626;51.678;5.806;2023-01-19T16:07:53;26.42;;;13.73;;
62572;SDS011;48626;51.678;5.806;2023-01-19T16:10:19;31.45;;;14.63;;
62572;SDS011;48626;51.678;5.806;2023-01-19T16:12:45;31.70;;;14.63;;
62572;SDS011;48626;51.678;5.806;2023-01-19T16:15:14;34.03;;;14.82;;